Главная страница
METAR-TAF:

METAR-TAF

Аэропорты :

Касабланка, Марокко

широта: 33-34N, долгота: 007-40W, высота над уровнем моря: 62 м

Текущие метеонаблюдения

Эта сводка был подготовлена 5 часа и 28 минут назад, в 20:00 UTC
Ветер 4 Узел от северо-северо-восточный
Температура 15°C
Влажность 88%
Давление 1028 hPa
Видимость 10 км и более
Нет облачности ниже 1500 м, и нет кучево-дождевой облачности

METAR: GMMC 162000Z 02004KT CAVOK 15/13 Q1028 NOSIG

Время: 01:28 (01:28 UTC)


TAF: отсутствует

Метеонаблюдения и прогнозы для более 4000 аэропортов (сводки METAR и TAF).

Имеющиеся станции представлены на карте желтыми и красными точками.

Чтобы увидеть название станции, наведите на нее мышь.

Затем щелкните, чтобы увидеть метеонаблюдения и метеопрогнозы.

Управление картой: чтобы увеличить масштаб, щелкните зеленые кнопки с черным крестиком; чтобы уменьшить масштаб, щелкните зеленую кнопку с тире; для просмотра соседних карт щелкайте зеленые стрелки.


METAR-TAF: